createdAt,value
2019-04-11T00:00:09.053Z,113.58
2019-04-11T00:05:17.358Z,111.02
2019-04-11T00:10:26.493Z,55.14
2019-04-11T00:15:36.722Z,93.12
2019-04-11T00:20:44.444Z,117.00
2019-04-11T00:25:53.777Z,118.34
2019-04-11T00:31:02.806Z,54.92
2019-04-11T00:36:12.397Z,91.38
2019-04-11T00:41:21.728Z,55.58
2019-04-11T00:46:29.293Z,94.43
2019-04-11T00:51:38.413Z,115.17
2019-04-11T00:56:48.436Z,117.54
2019-04-11T01:01:56.874Z,120.21
2019-04-11T01:07:05.018Z,119.41
2019-04-11T01:12:14.362Z,54.73
2019-04-11T01:17:23.366Z,90.86
2019-04-11T01:22:32.363Z,54.86
2019-04-11T01:27:42.542Z,92.71
2019-04-11T01:32:50.648Z,118.37
2019-04-11T01:37:59.869Z,56.32
2019-04-11T01:43:08.090Z,94.21
2019-04-11T01:48:16.455Z,119.71
2019-04-11T01:53:24.796Z,117.70
2019-04-11T01:58:34.858Z,119.15
2019-04-11T02:03:43.441Z,116.49
2019-04-11T02:08:51.426Z,116.22
2019-04-11T02:14:10.428Z,56.18
2019-04-11T02:19:10.152Z,57.64
2019-04-11T02:24:17.641Z,91.16
2019-04-11T02:29:27.693Z,117.75
2019-04-11T02:34:36.987Z,118.11
2019-04-11T02:39:44.481Z,118.21
2019-04-11T02:45:03.343Z,118.16
2019-04-11T02:50:03.494Z,118.69
2019-04-11T02:55:12.041Z,116.84
2019-04-11T03:00:20.363Z,114.81
2019-04-11T03:05:28.885Z,116.50
2019-04-11T03:10:37.808Z,116.66
2019-04-11T03:15:56.926Z,114.99
2019-04-11T03:20:57.717Z,108.67
2019-04-11T03:26:03.281Z,116.61
2019-04-11T03:31:33.191Z,113.91
2019-04-11T03:37:06.758Z,111.78
2019-04-11T03:41:48.962Z,109.46
2019-04-11T03:46:51.138Z,108.17
2019-04-11T03:51:47.975Z,100.18
2019-04-11T03:56:57.230Z,107.31
2019-04-11T04:02:05.760Z,107.39
2019-04-11T04:07:14.899Z,101.52
2019-04-11T04:12:22.742Z,112.94
2019-04-11T04:17:30.910Z,114.86
2019-04-11T04:22:39.683Z,82.37
2019-04-11T04:27:49.117Z,118.80
2019-04-11T04:32:56.897Z,115.48
2019-04-11T04:38:05.295Z,112.47
2019-04-11T04:43:14.666Z,55.71
2019-04-11T04:48:26.588Z,95.98
2019-04-11T04:53:33.171Z,116.36
2019-04-11T04:58:41.996Z,112.33
2019-04-11T05:03:50.871Z,117.30
2019-04-11T05:08:58.188Z,115.72
2019-04-11T05:14:07.199Z,114.19
2019-04-11T05:19:15.170Z,114.06
2019-04-11T05:24:24.273Z,114.77
2019-04-11T05:29:33.593Z,56.57
2019-04-11T05:34:43.507Z,100.23
2019-04-11T05:39:52.457Z,117.30
2019-04-11T05:45:00.023Z,56.57
2019-04-11T05:50:12.002Z,58.25
2019-04-11T05:55:17.753Z,98.19
2019-04-11T06:00:26.894Z,115.04
2019-04-11T06:05:37.540Z,58.62
2019-04-11T06:10:45.402Z,107.27
2019-04-11T06:15:53.783Z,113.10
2019-04-11T06:21:03.934Z,112.11
2019-04-11T06:26:11.568Z,114.27
2019-04-11T06:31:20.661Z,113.30
2019-04-11T06:36:30.125Z,111.22
2019-04-11T06:41:38.868Z,110.84
2019-04-11T06:46:53.898Z,110.46
2019-04-11T06:51:56.783Z,110.54
2019-04-11T06:57:05.525Z,59.66
2019-04-11T07:02:18.882Z,106.07
2019-04-11T07:07:22.708Z,61.34
2019-04-11T07:12:31.026Z,106.34
2019-04-11T07:17:40.455Z,108.97
2019-04-11T07:22:49.411Z,60.69
2019-04-11T07:27:59.408Z,105.62
2019-04-11T07:33:08.005Z,108.11
2019-04-11T07:38:16.288Z,108.56
2019-04-11T07:43:25.362Z,110.73
2019-04-11T07:48:34.467Z,110.43
2019-04-11T07:53:43.792Z,61.06
2019-04-11T07:58:52.777Z,106.17
2019-04-11T08:04:01.911Z,60.63
2019-04-11T08:09:11.154Z,110.44
2019-04-11T08:14:20.316Z,109.11
2019-04-11T08:19:29.550Z,114.93
2019-04-11T08:24:38.666Z,60.04
2019-04-11T08:29:50.004Z,105.62
2019-04-11T08:34:56.587Z,116.46
2019-04-11T08:40:05.877Z,108.80
2019-04-11T08:45:14.936Z,111.03
2019-04-11T08:50:26.179Z,60.55
2019-04-11T08:55:24.155Z,101.88
2019-04-11T09:00:34.577Z,109.18
2019-04-11T09:05:42.874Z,97.12
2019-04-11T09:10:51.035Z,111.53
2019-04-11T09:16:01.335Z,109.98
2019-04-11T09:21:09.789Z,113.37
2019-04-11T09:26:18.039Z,109.25
2019-04-11T09:31:27.487Z,110.47
2019-04-11T09:36:34.991Z,62.78
2019-04-11T09:41:46.848Z,102.94
2019-04-11T09:46:46.180Z,111.93
2019-04-11T09:51:58.321Z,63.41
2019-04-11T09:56:56.073Z,103.19
2019-04-11T10:02:05.892Z,109.27
2019-04-11T10:07:15.752Z,109.02
2019-04-11T10:12:22.130Z,107.61
2019-04-11T10:17:26.008Z,106.86
2019-04-11T10:22:28.874Z,99.34
2019-04-11T10:27:26.763Z,104.65
2019-04-11T10:32:36.097Z,93.47
2019-04-11T10:37:50.248Z,93.89
2019-04-11T10:42:49.557Z,71.84
2019-04-11T10:47:59.245Z,74.65
2019-04-11T10:53:08.933Z,121.51
2019-04-11T10:58:20.595Z,95.08
2019-04-11T11:03:18.690Z,87.44
2019-04-11T11:08:29.055Z,85.49
2019-04-11T11:13:39.062Z,84.07
2019-04-11T11:18:48.151Z,85.57
2019-04-11T11:23:45.338Z,84.39
2019-04-11T11:28:56.770Z,87.72
2019-04-11T11:34:03.303Z,80.05
2019-04-11T11:39:13.053Z,70.07
2019-04-11T11:44:22.373Z,98.43
2019-04-11T11:49:44.830Z,92.09
2019-04-11T11:54:39.713Z,86.78
2019-04-11T11:59:48.287Z,86.18
2019-04-11T12:04:57.076Z,80.64
2019-04-11T12:09:56.208Z,79.69
2019-04-11T12:15:05.576Z,90.80
2019-04-11T12:20:16.401Z,75.06
2019-04-11T12:25:25.732Z,77.56
2019-04-11T12:30:29.098Z,60.75
2019-04-11T12:35:33.466Z,67.40
2019-04-11T12:40:42.603Z,62.12
2019-04-11T12:45:51.932Z,61.91
2019-04-11T12:51:01.059Z,109.80
2019-04-11T12:56:10.313Z,58.17
2019-04-11T13:01:19.393Z,47.76
2019-04-11T13:06:35.261Z,41.25
2019-04-11T13:11:37.386Z,39.81
2019-04-11T13:16:46.586Z,40.27
2019-04-11T13:21:55.664Z,38.10
2019-04-11T13:27:05.184Z,68.27
2019-04-11T13:32:14.340Z,48.55
2019-04-11T13:37:23.545Z,38.86
2019-04-11T13:42:32.670Z,42.94
2019-04-11T13:47:42.011Z,71.02
2019-04-11T13:52:51.097Z,40.35
2019-04-11T13:58:00.270Z,52.81
2019-04-11T14:03:09.412Z,303.65
2019-04-11T14:08:18.602Z,40.95
2019-04-11T14:13:27.702Z,317.64
2019-04-11T14:18:36.889Z,48.27
2019-04-11T14:23:45.981Z,66.79
2019-04-11T14:28:55.135Z,39.45
2019-04-11T14:34:04.261Z,75.73
2019-04-11T14:39:13.480Z,61.25
2019-04-11T14:44:22.620Z,91.24
2019-04-11T14:49:34.274Z,9.47
2019-04-11T14:54:34.240Z,35.08
2019-04-11T14:59:43.416Z,77.59
2019-04-11T15:04:52.655Z,7.74
2019-04-11T15:10:01.850Z,213.41
2019-04-11T15:15:10.970Z,1970.90
2019-04-11T15:20:20.237Z,1999.57
2019-04-11T15:25:29.386Z,1999.52
2019-04-11T15:30:38.576Z,1999.63
2019-04-11T15:35:47.774Z,1824.11
2019-04-11T15:40:56.928Z,1965.61
2019-04-11T15:46:06.057Z,1069.79
2019-04-11T15:51:15.309Z,433.97
2019-04-11T15:56:25.476Z,164.04
2019-04-11T16:01:26.299Z,87.89
2019-04-11T16:06:25.402Z,334.93
2019-04-11T16:11:34.603Z,351.20
2019-04-11T16:16:43.726Z,408.43
2019-04-11T16:21:54.894Z,503.82
2019-04-11T16:27:01.635Z,590.25
2019-04-11T16:32:11.846Z,572.88
2019-04-11T16:37:11.920Z,59.43
2019-04-11T16:42:21.860Z,20.28
2019-04-11T16:47:28.813Z,10.49
2019-04-11T16:52:38.594Z,10.14
2019-04-11T16:57:46.747Z,9.52
2019-04-11T17:02:56.103Z,9.66
2019-04-11T17:08:05.458Z,10.37
2019-04-11T17:13:15.144Z,9.23
2019-04-11T17:18:26.717Z,10.33
2019-04-11T17:23:27.166Z,9.48
2019-04-11T17:28:26.307Z,9.19
2019-04-11T17:33:35.700Z,9.19
2019-04-11T17:38:47.270Z,9.91
2019-04-11T17:43:51.516Z,10.42
2019-04-11T17:48:46.962Z,9.21
2019-04-11T17:53:56.254Z,9.80
2019-04-11T17:59:05.383Z,10.49
2019-04-11T18:04:14.607Z,15.06
2019-04-11T18:09:25.810Z,11.87
2019-04-11T18:14:35.592Z,8.65
2019-04-11T18:19:36.254Z,9.06
2019-04-11T18:24:44.355Z,9.51
2019-04-11T18:29:44.236Z,10.32
2019-04-11T18:34:53.548Z,9.77
2019-04-11T18:40:06.338Z,7.60
2019-04-11T18:45:11.656Z,10.26
2019-04-11T18:50:22.957Z,9.10
2019-04-11T18:55:29.671Z,9.04
2019-04-11T19:00:39.034Z,9.47
2019-04-11T19:05:48.118Z,9.41
2019-04-11T19:10:59.791Z,9.03
2019-04-11T19:15:58.932Z,8.89
2019-04-11T19:21:07.777Z,9.91
2019-04-11T19:26:17.032Z,9.20
2019-04-11T19:31:28.199Z,9.40
2019-04-11T19:36:36.624Z,10.06
2019-04-11T19:41:35.732Z,14.29
2019-04-11T19:46:50.965Z,15.42
2019-04-11T19:51:50.869Z,8.85
2019-04-11T19:56:57.799Z,9.77
2019-04-11T20:02:07.527Z,9.02
2019-04-11T20:07:16.903Z,8.87
2019-04-11T20:12:27.768Z,8.02
2019-04-11T20:17:44.658Z,9.16
2019-04-11T20:22:40.518Z,9.88
2019-04-11T20:27:50.773Z,8.52
2019-04-11T20:32:58.001Z,9.11
2019-04-11T20:38:07.210Z,8.15
2019-04-11T20:43:16.354Z,8.04
2019-04-11T20:48:25.537Z,9.86
2019-04-11T20:53:36.807Z,9.49
2019-04-11T20:58:42.217Z,9.63
2019-04-11T21:03:51.361Z,9.32
2019-04-11T21:09:02.826Z,8.05
2019-04-11T21:14:09.237Z,9.64
2019-04-11T21:19:18.444Z,9.24
2019-04-11T21:24:30.490Z,10.90
2019-04-11T21:29:36.566Z,8.81
2019-04-11T21:34:45.695Z,10.44
2019-04-11T21:39:54.873Z,12.17
2019-04-11T21:45:06.234Z,9.88
2019-04-11T21:50:12.776Z,10.18
2019-04-11T21:55:21.930Z,10.19
2019-04-11T22:00:31.318Z,11.03
2019-04-11T22:05:40.436Z,8.40
2019-04-11T22:10:49.630Z,9.31
2019-04-11T22:15:58.730Z,9.49
2019-04-11T22:21:07.897Z,10.84
2019-04-11T22:26:17.075Z,8.10
2019-04-11T22:31:26.382Z,9.91
2019-04-11T22:36:35.459Z,8.96
2019-04-11T22:41:44.626Z,9.63
2019-04-11T22:46:53.760Z,9.53
2019-04-11T22:52:02.954Z,9.80
2019-04-11T22:57:12.808Z,10.00
2019-04-11T23:02:21.026Z,9.62
2019-04-11T23:07:30.147Z,10.21
2019-04-11T23:12:39.353Z,10.17
2019-04-11T23:17:48.452Z,9.10
2019-04-11T23:22:57.607Z,10.59
2019-04-11T23:28:06.751Z,10.43
2019-04-11T23:33:15.930Z,10.95
2019-04-11T23:38:25.068Z,9.84
2019-04-11T23:43:34.331Z,10.61
2019-04-11T23:48:43.460Z,10.10
2019-04-11T23:53:52.618Z,10.49
2019-04-11T23:59:04.316Z,10.82
